Time;durP1;ratioP1;P1;durP2;ratioP2;P2;SDS_P1;SDS_P2;PMS_P1;PMS_P2;Temp;Humidity;BMP_temperature;BMP_pressure;BME280_temperature;BME280_humidity;BME280_pressure;Samples;Min_cycle;Max_cycle;Signal;HPM_P1;HPM_P2
2021/03/30 00:01:46;;;;;;;69.93;38.80;;;282.10;1561.60;;;;;;5073433;28;20421;-72
2021/03/30 00:04:12;;;;;;;59.90;33.50;;;282.10;1561.60;;;;;;5073352;28;20078;-72
2021/03/30 00:06:38;;;;;;;59.90;31.63;;;282.10;1561.60;;;;;;5073079;28;20042;-71
2021/03/30 00:09:04;;;;;;;62.88;33.75;;;282.10;1587.20;;;;;;5073309;28;20054;-72
2021/03/30 00:11:30;;;;;;;59.10;34.28;;;282.10;1587.20;;;;;;5072868;28;20509;-72
2021/03/30 00:13:55;;;;;;;61.20;33.60;;;282.10;1561.60;;;;;;5073005;28;20033;-72
2021/03/30 00:16:21;;;;;;;59.45;31.50;;;282.10;1587.20;;;;;;5073127;28;20495;-72
2021/03/30 00:18:47;;;;;;;61.45;34.78;;;282.10;1612.80;;;;;;5071573;28;20437;-72
2021/03/30 00:21:13;;;;;;;74.30;38.83;;;282.00;1638.40;;;;;;5073057;28;20467;-72
2021/03/30 00:23:39;;;;;;;95.65;44.42;;;282.00;1587.20;;;;;;5072729;28;20078;-72
2021/03/30 00:26:05;;;;;;;67.45;35.55;;;282.00;1587.20;;;;;;5072826;28;20028;-72
2021/03/30 00:28:31;;;;;;;57.33;33.75;;;282.00;1587.20;;;;;;5072498;28;20399;-72
2021/03/30 00:30:56;;;;;;;54.92;31.83;;;282.10;1612.80;;;;;;5071318;28;20209;-72
2021/03/30 00:33:23;;;;;;;63.55;34.13;;;282.00;1612.80;;;;;;5072670;28;20017;-72
2021/03/30 00:35:48;;;;;;;57.53;31.45;;;282.00;1612.80;;;;;;5072349;28;20029;-72
2021/03/30 00:38:14;;;;;;;48.88;29.75;;;281.90;1612.80;;;;;;5072516;28;20415;-72
2021/03/30 00:40:40;;;;;;;54.33;29.33;;;281.90;1612.80;;;;;;5072336;28;20029;-72
2021/03/30 00:43:06;;;;;;;58.85;31.02;;;281.90;1612.80;;;;;;5072367;28;20024;-72
2021/03/30 00:45:32;;;;;;;68.57;35.78;;;282.00;1612.80;;;;;;5072499;28;20471;-71
2021/03/30 00:47:59;;;;;;;65.63;33.38;;;282.00;1587.20;;;;;;5072466;28;20483;-72
2021/03/30 00:50:30;;;;;;;64.05;35.80;;;281.90;1612.80;;;;;;5072391;28;20028;-72
2021/03/30 00:52:55;;;;;;;72.70;37.28;;;281.90;1612.80;;;;;;5072532;28;20115;-72
2021/03/30 00:55:21;;;;;;;71.78;38.63;;;281.90;1612.80;;;;;;5072192;28;20052;-72
2021/03/30 00:57:48;;;;;;;68.97;36.45;;;281.90;1587.20;;;;;;5072064;28;20032;-73
2021/03/30 01:00:16;;;;;;;61.28;34.80;;;281.80;1612.80;;;;;;5072442;28;20029;-72
2021/03/30 01:02:42;;;;;;;67.63;35.65;;;281.80;1587.20;;;;;;5072125;28;20108;-72
2021/03/30 01:05:10;;;;;;;73.03;36.88;;;281.80;1587.20;;;;;;5071973;28;20111;-72
2021/03/30 01:07:38;;;;;;;67.63;34.90;;;281.80;1587.20;;;;;;5071737;28;20090;-72
2021/03/30 01:10:22;;;;;;;64.45;33.92;;;281.70;1612.80;;;;;;5072056;28;20027;-72
2021/03/30 01:13:03;;;;;;;75.65;35.20;;;281.70;1612.80;;;;;;5071668;28;20039;-72
2021/03/30 01:15:37;;;;;;;64.07;33.38;;;281.70;1612.80;;;;;;5071692;28;20027;-72
2021/03/30 01:18:15;;;;;;;62.95;34.95;;;281.60;1612.80;;;;;;5071938;28;20367;-73
2021/03/30 01:21:08;;;;;;;69.38;35.28;;;281.60;1612.80;;;;;;5071524;28;20483;-72
2021/03/30 01:23:58;;;;;;;66.45;35.22;;;256.90;1638.40;;;;;;5071926;28;20030;-73
2021/03/30 01:26:46;;;;;;;69.38;34.97;;;281.60;1612.80;;;;;;5071589;28;20068;-72
2021/03/30 01:29:48;;;;;;;61.10;33.72;;;256.90;1587.20;;;;;;5071455;28;20482;-73
2021/03/30 01:32:25;;;;;;;63.13;33.60;;;256.90;1587.20;;;;;;5071499;28;20060;-73
2021/03/30 01:34:54;;;;;;;67.85;33.35;;;256.90;1612.80;;;;;;5071265;28;20482;-71
2021/03/30 01:37:21;;;;;;;59.30;32.15;;;256.90;1612.80;;;;;;5071457;28;20407;-71
2021/03/30 01:39:51;;;;;;;65.15;34.00;;;256.90;1612.80;;;;;;5071098;28;20339;-71
2021/03/30 01:42:23;;;;;;;64.47;33.13;;;281.60;1612.80;;;;;;5071094;28;20048;-72
2021/03/30 01:44:49;;;;;;;70.03;35.53;;;281.60;1587.20;;;;;;5071140;28;20028;-71
2021/03/30 01:47:17;;;;;;;68.07;35.28;;;281.60;1587.20;;;;;;5071292;28;20047;-71
2021/03/30 01:49:44;;;;;;;69.18;35.85;;;281.60;1587.20;;;;;;5071298;28;20466;-71
2021/03/30 01:52:13;;;;;;;61.72;34.78;;;281.60;1612.80;;;;;;5071180;28;20099;-72
2021/03/30 01:54:41;;;;;;;71.53;37.60;;;281.70;1587.20;;;;;;5070978;28;20021;-72
2021/03/30 01:57:08;;;;;;;68.63;36.97;;;281.70;1587.20;;;;;;5071013;28;20467;-72
2021/03/30 01:59:34;;;;;;;79.47;39.53;;;281.60;1587.20;;;;;;5071033;28;20043;-71
2021/03/30 02:02:02;;;;;;;103.88;46.40;;;281.60;1587.20;;;;;;5071090;28;20024;-71
2021/03/30 02:04:29;;;;;;;94.45;44.22;;;281.60;1587.20;;;;;;5070841;28;20016;-72
2021/03/30 02:06:56;;;;;;;75.43;38.58;;;256.90;1587.20;;;;;;5070887;28;20042;-71
2021/03/30 02:09:30;;;;;;;72.70;36.78;;;256.80;1587.20;;;;;;5070953;28;20494;-71
2021/03/30 02:12:07;;;;;;;66.25;35.63;;;256.90;1587.20;;;;;;5071147;28;20063;-71
2021/03/30 02:14:33;;;;;;;62.55;35.30;;;256.80;1587.20;;;;;;5070758;28;20055;-72
2021/03/30 02:17:21;;;;;;;65.13;34.17;;;256.80;1587.20;;;;;;5070680;28;20570;-72
2021/03/30 02:20:45;;;;;;;65.93;35.00;;;256.80;1587.20;;;;;;5069228;28;20398;-73
2021/03/30 02:23:19;;;;;;;62.03;34.25;;;256.90;1561.60;;;;;;5008795;28;20095;-72
2021/03/30 02:25:49;;;;;;;69.43;35.45;;;256.80;1561.60;;;;;;5008767;28;20030;-71
2021/03/30 02:28:18;;;;;;;61.55;34.45;;;256.80;1561.60;;;;;;5008918;28;20113;-71
2021/03/30 02:30:45;;;;;;;65.95;34.80;;;256.80;1587.20;;;;;;5008908;28;20069;-72
2021/03/30 02:33:15;;;;;;;57.78;34.42;;;256.70;1587.20;;;;;;5008562;28;20408;-71
2021/03/30 02:35:42;;;;;;;56.00;33.17;;;256.70;1587.20;;;;;;5008617;28;20026;-71
2021/03/30 02:38:09;;;;;;;53.58;32.88;;;256.70;1587.20;;;;;;5008490;28;20084;-71
2021/03/30 02:40:35;;;;;;;59.50;32.65;;;256.60;1587.20;;;;;;5008739;28;20030;-71
2021/03/30 02:43:03;;;;;;;57.50;32.17;;;256.70;1612.80;;;;;;5007903;28;20030;-71
2021/03/30 02:45:30;;;;;;;50.03;31.23;;;256.70;1612.80;;;;;;5008644;28;20029;-71
2021/03/30 02:48:00;;;;;;;56.83;33.13;;;256.70;1612.80;;;;;;5008797;28;20141;-71
2021/03/30 02:50:27;;;;;;;51.45;31.10;;;256.70;1587.20;;;;;;5008745;28;20033;-72
2021/03/30 02:52:55;;;;;;;55.47;29.58;;;256.60;1612.80;;;;;;5008762;28;20057;-72
2021/03/30 02:55:22;;;;;;;53.35;27.55;;;256.60;1587.20;;;;;;5008385;28;20061;-71
2021/03/30 02:57:49;;;;;;;52.03;27.08;;;256.50;1612.80;;;;;;5056671;28;20028;-73
2021/03/30 03:00:16;;;;;;;47.80;25.42;;;256.60;1587.20;;;;;;5070472;28;20025;-72
2021/03/30 03:02:43;;;;;;;51.70;25.75;;;256.60;1587.20;;;;;;5070559;28;20112;-71
2021/03/30 03:05:10;;;;;;;49.50;26.17;;;256.60;1587.20;;;;;;5070256;28;20028;-72
2021/03/30 03:07:37;;;;;;;51.97;26.73;;;256.50;1612.80;;;;;;5070214;28;20045;-71
2021/03/30 03:10:06;;;;;;;45.40;24.65;;;256.50;1612.80;;;;;;5070296;28;20032;-71
2021/03/30 03:12:33;;;;;;;43.63;24.45;;;256.50;1587.20;;;;;;5070391;28;20094;-71
2021/03/30 03:15:01;;;;;;;46.22;24.80;;;256.60;1612.80;;;;;;5070194;28;20029;-72
2021/03/30 03:17:29;;;;;;;43.53;22.48;;;256.50;1612.80;;;;;;5070099;28;20352;-71
2021/03/30 03:19:56;;;;;;;39.70;21.65;;;256.50;1612.80;;;;;;5070016;28;20052;-72
2021/03/30 03:22:23;;;;;;;42.15;22.70;;;256.60;1612.80;;;;;;5070082;28;20111;-73
2021/03/30 03:24:50;;;;;;;35.42;21.25;;;256.50;1612.80;;;;;;5069962;28;20024;-73
2021/03/30 03:27:16;;;;;;;39.67;22.98;;;256.50;1612.80;;;;;;5068379;28;20048;-73
2021/03/30 03:29:42;;;;;;;33.92;21.40;;;256.50;1612.80;;;;;;5070121;28;20094;-73
2021/03/30 03:32:09;;;;;;;39.33;21.25;;;256.40;1612.80;;;;;;5070091;28;20072;-72
2021/03/30 03:34:36;;;;;;;37.53;21.65;;;256.40;1638.40;;;;;;5070329;28;20434;-72
2021/03/30 03:37:02;;;;;;;40.65;20.52;;;256.40;1612.80;;;;;;5069900;28;20024;-73
2021/03/30 03:39:28;;;;;;;35.60;20.58;;;256.40;1638.40;;;;;;5069619;28;20021;-73
2021/03/30 03:41:54;;;;;;;40.20;22.05;;;256.40;1638.40;;;;;;5069925;28;20039;-73
2021/03/30 03:44:20;;;;;;;52.45;25.67;;;256.40;1638.40;;;;;;5069609;28;20020;-73
2021/03/30 03:46:49;;;;;;;61.13;26.63;;;256.40;1638.40;;;;;;5069905;28;20059;-73
2021/03/30 03:49:15;;;;;;;60.50;28.08;;;256.40;1638.40;;;;;;5069974;28;20048;-72
2021/03/30 03:51:50;;;;;;;59.60;27.08;;;256.40;1638.40;;;;;;5069831;28;20075;-73
2021/03/30 03:54:19;;;;;;;50.22;26.38;;;256.30;1689.60;;;;;;5070988;28;20050;-73
2021/03/30 03:56:49;;;;;;;60.65;28.67;;;256.30;1664.00;;;;;;5073488;28;20032;-71
2021/03/30 03:59:23;;;;;;;59.08;27.48;;;256.30;1664.00;;;;;;5073617;28;20024;-71
2021/03/30 04:02:22;;;;;;;59.58;26.25;;;256.30;1664.00;;;;;;5073340;28;20024;-71
2021/03/30 04:05:10;;;;;;;50.20;24.50;;;256.30;1664.00;;;;;;5011278;28;20077;-72
2021/03/30 04:07:48;;;;;;;51.30;25.83;;;256.30;1664.00;;;;;;5011522;28;20034;-72
2021/03/30 04:10:19;;;;;;;50.20;24.33;;;256.20;1689.60;;;;;;5011564;28;20037;-71
2021/03/30 04:12:45;;;;;;;49.40;24.92;;;256.20;1689.60;;;;;;5011207;28;20516;-72
2021/03/30 04:15:12;;;;;;;43.90;22.23;;;256.30;1689.60;;;;;;5011056;28;20037;-72
2021/03/30 04:17:40;;;;;;;47.80;21.20;;;256.20;1689.60;;;;;;5011029;28;20113;-72
2021/03/30 04:20:12;;;;;;;46.53;22.08;;;256.20;1689.60;;;;;;5011033;28;20056;-72
2021/03/30 04:22:38;;;;;;;52.92;24.58;;;256.30;1689.60;;;;;;5011172;28;20030;-72
2021/03/30 04:25:05;;;;;;;56.58;26.60;;;256.30;1689.60;;;;;;5011091;28;20022;-71
2021/03/30 04:27:32;;;;;;;65.30;27.95;;;256.30;1715.20;;;;;;5010814;28;20053;-71
2021/03/30 04:29:58;;;;;;;64.80;28.00;;;256.20;1740.80;;;;;;5010584;28;20026;-72
2021/03/30 04:32:24;;;;;;;68.60;30.80;;;256.20;1715.20;;;;;;5010984;28;20030;-71
2021/03/30 04:34:50;;;;;;;64.78;30.73;;;256.30;1715.20;;;;;;5010854;28;20554;-71
2021/03/30 04:37:15;;;;;;;70.35;32.28;;;256.30;1715.20;;;;;;5010780;28;20057;-71
2021/03/30 04:39:41;;;;;;;63.28;26.98;;;256.30;1740.80;;;;;;5010592;28;20095;-71
2021/03/30 04:42:07;;;;;;;48.20;25.45;;;256.30;1715.20;;;;;;5067050;28;20454;-73
2021/03/30 04:44:33;;;;;;;50.60;25.83;;;256.20;1689.60;;;;;;5072258;28;20023;-71
2021/03/30 04:46:59;;;;;;;53.05;29.15;;;256.30;1689.60;;;;;;5072340;28;20036;-71
2021/03/30 04:49:25;;;;;;;58.85;31.33;;;256.40;1715.20;;;;;;5072617;28;20025;-71
2021/03/30 04:51:52;;;;;;;84.22;41.45;;;256.70;1664.00;;;;;;5072097;28;20024;-71
2021/03/30 04:54:18;;;;;;;72.82;39.78;;;256.40;1689.60;;;;;;5072212;28;20475;-71
2021/03/30 04:56:44;;;;;;;85.53;44.40;;;256.40;1664.00;;;;;;5072414;28;20036;-71
2021/03/30 04:59:09;;;;;;;85.85;44.60;;;256.50;1638.40;;;;;;5072173;28;20020;-72
2021/03/30 05:01:35;;;;;;;77.40;44.40;;;256.50;1638.40;;;;;;5072209;28;20058;-72
2021/03/30 05:04:01;;;;;;;84.40;44.33;;;256.60;1638.40;;;;;;5072063;28;20376;-72
2021/03/30 05:06:27;;;;;;;81.38;44.55;;;256.60;1638.40;;;;;;5071306;28;20031;-73
2021/03/30 05:08:53;;;;;;;91.85;45.08;;;256.60;1638.40;;;;;;5072178;28;20029;-72
2021/03/30 05:11:18;;;;;;;77.68;43.47;;;256.60;1638.40;;;;;;5071812;28;20490;-72
2021/03/30 05:13:45;;;;;;;84.00;45.15;;;256.70;1664.00;;;;;;5071804;28;20032;-71
2021/03/30 05:16:10;;;;;;;95.25;46.25;;;256.70;1638.40;;;;;;5071700;28;20036;-72
2021/03/30 05:18:37;;;;;;;108.70;52.80;;;256.80;1638.40;;;;;;5071808;28;20124;-71
2021/03/30 05:21:03;;;;;;;87.70;48.58;;;256.80;1638.40;;;;;;5071914;28;20025;-71
2021/03/30 05:23:29;;;;;;;88.60;49.25;;;256.90;1612.80;;;;;;5071500;28;20036;-72
2021/03/30 05:25:55;;;;;;;93.45;51.03;;;256.90;1612.80;;;;;;5071729;28;20024;-71
2021/03/30 05:28:20;;;;;;;100.43;48.67;;;281.60;1638.40;;;;;;5071695;28;20082;-72
2021/03/30 05:30:46;;;;;;;88.80;45.60;;;281.60;1638.40;;;;;;5071628;28;20021;-72
2021/03/30 05:33:12;;;;;;;85.65;44.95;;;256.90;1612.80;;;;;;5071548;28;20714;-71
2021/03/30 05:35:38;;;;;;;80.80;43.65;;;281.60;1664.00;;;;;;5069344;28;20120;-72
2021/03/30 05:38:03;;;;;;;97.68;48.90;;;281.60;1664.00;;;;;;5071353;28;20052;-72
2021/03/30 05:40:29;;;;;;;87.93;48.10;;;281.70;1664.00;;;;;;5071163;28;20036;-72
2021/03/30 05:42:55;;;;;;;87.88;50.00;;;281.80;1638.40;;;;;;5071259;28;20032;-72
2021/03/30 05:45:22;;;;;;;103.28;50.97;;;281.80;1638.40;;;;;;5071050;28;20033;-72
2021/03/30 05:47:49;;;;;;;91.75;47.97;;;281.90;1638.40;;;;;;5071084;28;20604;-79
2021/03/30 05:50:17;;;;;;;117.43;60.42;;;281.90;1612.80;;;;;;5071439;28;20031;-79
2021/03/30 05:53:05;;;;;;;124.85;63.67;;;281.90;1612.80;;;;;;5071455;28;20029;-78
2021/03/30 05:55:34;;;;;;;117.32;63.55;;;282.00;1612.80;;;;;;5071206;28;20103;-76
2021/03/30 05:58:02;;;;;;;139.88;70.30;;;282.00;1612.80;;;;;;5071211;28;20096;-77
2021/03/30 06:00:29;;;;;;;161.25;78.93;;;282.00;1587.20;;;;;;5071177;28;20027;-75
2021/03/30 06:02:58;;;;;;;237.00;102.38;;;282.10;1587.20;;;;;;5071317;28;20390;-76
2021/03/30 06:05:24;;;;;;;278.38;117.07;;;282.20;1587.20;;;;;;5086943;28;20107;-78
2021/03/30 06:07:53;;;;;;;186.35;85.75;;;282.10;1612.80;;;;;;5069589;28;20035;-77
2021/03/30 06:10:24;;;;;;;141.25;65.13;;;282.20;1612.80;;;;;;5070876;28;20078;-78
2021/03/30 06:12:50;;;;;;;108.00;54.72;;;282.20;1612.80;;;;;;5070725;28;20028;-79
2021/03/30 06:15:16;;;;;;;101.78;52.65;;;282.30;1587.20;;;;;;5071034;28;20111;-80
2021/03/30 06:17:48;;;;;;;168.52;95.05;;;282.30;1587.20;;;;;;5070349;28;20105;-75
2021/03/30 06:20:24;;;;;;;113.68;66.30;;;282.40;1561.60;;;;;;5070841;28;20049;-77
2021/03/30 06:22:53;;;;;;;129.50;73.90;;;282.40;1587.20;;;;;;5070558;28;20024;-75
2021/03/30 06:25:45;;;;;;;107.93;61.58;;;282.50;1536.00;;;;;;5070490;28;20028;-75
2021/03/30 06:28:20;;;;;;;82.05;48.60;;;307.20;1561.60;;;;;;5070512;28;20047;-75
2021/03/30 06:30:59;;;;;;;76.78;44.47;;;307.30;1536.00;;;;;;5070538;28;20020;-73
2021/03/30 06:33:26;;;;;;;74.15;43.78;;;307.30;1536.00;;;;;;5070324;28;20047;-73
2021/03/30 06:35:52;;;;;;;68.18;38.42;;;307.40;1510.40;;;;;;5070146;28;20021;-76
2021/03/30 06:38:18;;;;;;;66.25;37.53;;;307.50;1510.40;;;;;;5070258;28;20058;-75
2021/03/30 06:40:46;;;;;;;58.60;33.97;;;307.50;1510.40;;;;;;5070729;28;20024;-75
2021/03/30 06:46:08;;;;;;;55.92;31.60;;;307.60;1484.80;;;;;;5070364;28;20048;-76
2021/03/30 06:48:37;;;;;;;60.60;33.40;;;307.60;1510.40;;;;;;5070572;28;20060;-75
2021/03/30 06:51:22;;;;;;;47.92;30.10;;;307.60;1510.40;;;;;;5070818;28;20017;-76
2021/03/30 06:53:47;;;;;;;46.67;30.33;;;307.70;1484.80;;;;;;5070423;28;20036;-73
2021/03/30 06:56:13;;;;;;;52.20;32.25;;;307.90;1484.80;;;;;;5070671;28;20422;-73
2021/03/30 06:58:59;;;;;;;51.45;31.13;;;308.00;1484.80;;;;;;5070825;28;20021;-75
2021/03/30 07:01:27;;;;;;;55.22;30.20;;;308.10;1484.80;;;;;;5070787;28;20728;-75
2021/03/30 07:03:54;;;;;;;52.33;29.33;;;332.80;1510.40;;;;;;5070695;28;20100;-78
2021/03/30 07:06:21;;;;;;;51.85;30.48;;;332.80;1484.80;;;;;;5070290;28;20024;-77
2021/03/30 07:08:47;;;;;;;53.17;30.55;;;332.90;1459.20;;;;;;5069400;28;20558;-76
2021/03/30 07:11:18;;;;;;;47.05;28.35;;;332.90;1459.20;;;;;;5066988;28;20023;-73
2021/03/30 07:13:44;;;;;;;45.00;27.73;;;333.00;1459.20;;;;;;5078235;28;20058;-72
2021/03/30 07:16:17;;;;;;;46.88;27.90;;;333.00;1433.60;;;;;;5080423;28;20032;-74
2021/03/30 07:18:49;;;;;;;62.45;38.67;;;333.10;1433.60;;;;;;5079927;28;20071;-73
2021/03/30 07:21:20;;;;;;;50.85;26.45;;;333.20;1433.60;;;;;;5079238;28;20050;-74
2021/03/30 07:24:04;;;;;;;47.03;27.77;;;333.20;1408.00;;;;;;5077273;28;20029;-73
2021/03/30 07:26:38;;;;;;;48.88;28.65;;;333.40;1382.40;;;;;;5080228;28;20470;-74
2021/03/30 07:29:06;;;;;;;36.80;22.13;;;333.50;1382.40;;;;;;5082926;28;20039;-76
2021/03/30 07:31:38;;;;;;;32.55;20.70;;;333.60;1356.80;;;;;;5082338;28;20485;-75
2021/03/30 07:34:11;;;;;;;59.72;32.78;;;333.60;1356.80;;;;;;5082234;28;20115;-74
2021/03/30 07:36:47;;;;;;;36.85;21.13;;;333.70;1331.20;;;;;;5082878;28;20023;-77
2021/03/30 07:39:17;;;;;;;27.50;18.00;;;358.40;1305.60;;;;;;5081824;28;20028;-73
2021/03/30 07:41:44;;;;;;;26.60;15.57;;;358.40;1305.60;;;;;;5081011;28;20386;-73
2021/03/30 07:44:10;;;;;;;31.48;17.25;;;358.50;1280.00;;;;;;5083952;28;20020;-72
2021/03/30 07:46:37;;;;;;;30.73;16.25;;;358.50;1280.00;;;;;;5082521;28;20486;-73
2021/03/30 07:49:04;;;;;;;27.13;15.00;;;358.60;1280.00;;;;;;5082056;28;20467;-72
2021/03/30 07:51:43;;;;;;;32.15;16.45;;;358.70;1254.40;;;;;;5083318;28;20373;-75
2021/03/30 07:54:18;;;;;;;23.30;14.55;;;358.80;1254.40;;;;;;5083928;28;20019;-73
2021/03/30 07:56:49;;;;;;;24.83;13.57;;;358.80;1228.80;;;;;;5083177;28;20040;-73
2021/03/30 07:59:48;;;;;;;25.30;14.70;;;358.80;1228.80;;;;;;5082190;28;20528;-73
2021/03/30 08:02:17;;;;;;;20.90;12.23;;;358.90;1203.20;;;;;;5081941;28;20025;-81
2021/03/30 08:05:10;;;;;;;29.00;18.52;;;358.90;1203.20;;;;;;5082033;28;20016;-75
2021/03/30 08:07:50;;;;;;;25.83;13.10;;;359.00;1177.60;;;;;;5080547;28;20045;-82
2021/03/30 08:10:22;;;;;;;21.23;12.47;;;359.10;1177.60;;;;;;5081851;28;20017;-78
2021/03/30 08:12:47;;;;;;;25.88;12.38;;;359.30;1177.60;;;;;;5079420;28;20113;-78
2021/03/30 08:15:42;;;;;;;28.92;14.82;;;359.20;1152.00;;;;;;5084254;28;20444;-77
2021/03/30 08:18:10;;;;;;;31.17;18.48;;;359.30;1152.00;;;;;;5081860;28;20028;-77
2021/03/30 08:20:57;;;;;;;24.02;13.27;;;359.30;1152.00;;;;;;5080868;28;20082;-78
2021/03/30 08:23:24;;;;;;;23.73;10.90;;;384.10;1126.40;;;;;;5082711;28;20017;-80
2021/03/30 08:25:52;;;;;;;18.50;9.95;;;384.20;1126.40;;;;;;5079297;28;20040;-78
2021/03/30 08:28:54;;;;;;;17.90;10.35;;;384.30;1126.40;;;;;;5081083;28;20042;-76
2021/03/30 08:31:23;;;;;;;20.20;11.57;;;384.40;1100.80;;;;;;5059621;28;20029;-75
2021/03/30 08:33:50;;;;;;;22.27;10.88;;;384.40;1100.80;;;;;;5080639;28;20032;-75
2021/03/30 08:36:17;;;;;;;24.00;15.27;;;384.40;1100.80;;;;;;5082764;28;20351;-74
2021/03/30 08:38:48;;;;;;;20.23;10.82;;;384.50;1100.80;;;;;;5082385;28;20025;-75
2021/03/30 08:41:32;;;;;;;;;;;384.60;1075.20;;;;;;5080635;28;20017;-76
2021/03/30 08:44:29;;;;;;;18.90;9.40;;;384.60;1075.20;;;;;;5081057;28;20380;-76
2021/03/30 08:46:58;;;;;;;15.98;7.20;;;384.70;1049.60;;;;;;5001955;28;20062;-75
2021/03/30 08:49:25;;;;;;;18.10;9.18;;;384.60;1024.00;;;;;;4999111;28;20026;-76
2021/03/30 08:51:57;;;;;;;13.07;7.05;;;384.70;1049.60;;;;;;5000572;28;20164;-75
2021/03/30 08:54:35;;;;;;;11.10;6.25;;;384.80;998.40;;;;;;4983794;28;20461;-74
2021/03/30 08:57:09;;;;;;;14.65;7.85;;;384.80;972.80;;;;;;4999528;28;20042;-76
2021/03/30 08:59:35;;;;;;;27.23;16.20;;;384.80;1024.00;;;;;;5001702;28;20018;-75
2021/03/30 09:02:05;;;;;;;27.50;16.90;;;384.80;998.40;;;;;;4999811;28;20041;-76
2021/03/30 09:04:33;;;;;;;19.00;8.50;;;384.90;998.40;;;;;;4999888;28;20121;-75
2021/03/30 09:06:59;;;;;;;17.05;8.43;;;409.60;998.40;;;;;;4998892;28;20093;-74
2021/03/30 09:09:33;;;;;;;14.68;8.32;;;409.60;998.40;;;;;;4998795;28;20034;-74
2021/03/30 09:11:59;;;;;;;19.35;11.55;;;409.60;1024.00;;;;;;4999471;28;20081;-76
2021/03/30 09:14:25;;;;;;;16.58;10.02;;;409.70;1024.00;;;;;;5000223;28;20023;-74
2021/03/30 09:16:51;;;;;;;15.48;9.30;;;409.80;1024.00;;;;;;4998506;28;20120;-74
2021/03/30 09:19:34;;;;;;;16.13;9.40;;;409.80;1024.00;;;;;;4999519;28;20049;-74
2021/03/30 09:22:03;;;;;;;25.48;16.23;;;409.80;1024.00;;;;;;4999059;28;20501;-76
2021/03/30 09:27:08;;;;;;;17.40;9.98;;;410.00;1024.00;;;;;;5081638;28;20035;-74
2021/03/30 09:29:35;;;;;;;20.67;10.82;;;410.00;998.40;;;;;;5079739;28;20020;-75
2021/03/30 09:32:03;;;;;;;20.80;13.10;;;410.00;1024.00;;;;;;5080427;28;20107;-74
2021/03/30 09:34:29;;;;;;;21.67;11.85;;;410.10;1024.00;;;;;;5080894;28;20103;-79
2021/03/30 09:36:58;;;;;;;19.30;10.50;;;410.10;998.40;;;;;;5080383;28;20104;-79
2021/03/30 09:39:25;;;;;;;15.45;10.68;;;410.20;998.40;;;;;;5079396;28;20020;-81
2021/03/30 09:41:53;;;;;;;17.48;11.15;;;410.20;998.40;;;;;;5082677;28;20073;-81
2021/03/30 09:44:21;;;;;;;20.73;12.07;;;410.20;998.40;;;;;;5080605;28;20130;-80
2021/03/30 09:46:50;;;;;;;24.25;13.15;;;410.30;998.40;;;;;;5080018;28;20482;-82
2021/03/30 09:49:19;;;;;;;18.00;13.20;;;410.30;1024.00;;;;;;5081702;28;20020;-81
2021/03/30 09:51:46;;;;;;;33.97;20.00;;;410.40;1024.00;;;;;;5081611;28;20024;-82
2021/03/30 09:54:47;;;;;;;27.30;14.45;;;410.50;1024.00;;;;;;5079951;28;20020;-82
2021/03/30 09:57:14;;;;;;;22.60;13.18;;;435.30;1024.00;;;;;;4999852;28;20029;-75
2021/03/30 09:59:45;;;;;;;21.40;12.18;;;435.40;998.40;;;;;;4998217;28;20527;-75
2021/03/30 10:02:12;;;;;;;21.92;11.93;;;435.50;972.80;;;;;;4997233;28;20052;-76
2021/03/30 10:04:38;;;;;;;21.05;10.52;;;435.60;972.80;;;;;;4982792;28;20032;-81
2021/03/30 10:07:16;;;;;;;15.40;9.05;;;435.60;947.20;;;;;;4982365;28;20030;-74
2021/03/30 10:10:01;;;;;;;12.98;5.70;;;435.70;947.20;;;;;;4982861;28;20029;-76
2021/03/30 10:12:32;;;;;;;11.95;7.32;;;435.90;896.00;;;;;;4983352;28;20030;-81
2021/03/30 10:14:59;;;;;;;19.58;12.73;;;436.00;947.20;;;;;;4997687;28;20123;-75
2021/03/30 10:17:27;;;;;;;14.32;8.40;;;436.10;947.20;;;;;;4997570;28;20030;-72
2021/03/30 10:19:54;;;;;;;21.25;12.73;;;460.90;947.20;;;;;;4999375;28;20042;-76
2021/03/30 10:22:34;;;;;;;15.13;8.57;;;461.00;921.60;;;;;;4997825;28;20118;-80
2021/03/30 10:25:21;;;;;;;11.98;7.30;;;461.10;947.20;;;;;;4981070;28;20058;-78
2021/03/30 10:27:57;;;;;;;13.13;7.47;;;461.30;947.20;;;;;;4999761;28;20035;-78
2021/03/30 10:30:30;;;;;;;11.27;7.18;;;461.20;870.40;;;;;;5014474;28;20585;-78
2021/03/30 10:32:58;;;;;;;13.10;7.68;;;461.30;896.00;;;;;;5078646;28;20501;-77
2021/03/30 10:35:24;;;;;;;17.15;10.68;;;461.40;896.00;;;;;;5078216;28;20129;-80
2021/03/30 10:37:50;;;;;;;14.40;9.13;;;461.50;896.00;;;;;;5079385;28;20031;-81
2021/03/30 10:40:16;;;;;;;18.27;9.43;;;461.50;896.00;;;;;;5077251;28;20016;-79
2021/03/30 10:42:42;;;;;;;12.90;9.75;;;486.50;870.40;;;;;;5079260;28;20078;-79
2021/03/30 10:45:10;;;;;;;15.38;9.40;;;461.50;896.00;;;;;;5079106;28;20045;-79
2021/03/30 10:47:42;;;;;;;14.73;8.23;;;461.50;921.60;;;;;;5077119;28;20431;-77
2021/03/30 10:50:15;;;;;;;14.02;8.63;;;461.60;896.00;;;;;;5077315;28;20012;-80
2021/03/30 10:52:43;;;;;;;14.55;8.15;;;461.60;896.00;;;;;;5079460;28;20055;-77
2021/03/30 10:55:16;;;;;;;17.25;8.63;;;461.70;870.40;;;;;;5078757;28;20020;-78
2021/03/30 10:57:47;;;;;;;13.88;7.50;;;461.70;844.80;;;;;;5079297;28;20024;-75
2021/03/30 11:00:14;;;;;;;10.25;7.53;;;461.70;896.00;;;;;;5077706;28;20379;-79
2021/03/30 11:02:40;;;;;;;23.58;10.18;;;461.70;870.40;;;;;;5080280;28;20031;-83
2021/03/30 11:05:08;;;;;;;14.07;8.18;;;461.70;921.60;;;;;;5084132;28;20029;-82
2021/03/30 11:07:34;;;;;;;12.52;7.50;;;486.40;896.00;;;;;;5081623;28;20040;-82
2021/03/30 11:10:01;;;;;;;12.57;7.03;;;486.40;870.40;;;;;;5084673;28;20077;-87
2021/03/30 11:12:26;;;;;;;13.48;7.85;;;486.40;870.40;;;;;;5084496;28;20104;-75
2021/03/30 11:14:52;;;;;;;11.88;6.90;;;486.40;844.80;;;;;;5082767;28;20436;-81
2021/03/30 11:17:18;;;;;;;14.52;7.20;;;486.50;870.40;;;;;;5085506;28;20024;-83
2021/03/30 11:19:44;;;;;;;10.70;6.30;;;486.50;870.40;;;;;;5084024;28;20076;-78
2021/03/30 11:22:10;;;;;;;11.02;7.10;;;486.50;844.80;;;;;;5082526;28;20028;-78
2021/03/30 11:24:39;;;;;;;21.60;12.00;;;486.50;896.00;;;;;;5084141;28;20484;-77
2021/03/30 11:27:06;;;;;;;13.75;7.45;;;486.60;947.20;;;;;;5083504;28;20032;-79
2021/03/30 11:39:54;;;;;;;18.73;11.18;;;486.90;870.40;;;;;;5083450;28;20054;-80
2021/03/30 11:42:20;;;;;;;17.15;7.38;;;487.10;921.60;;;;;;5081092;28;20024;-78
2021/03/30 11:44:46;;;;;;;15.20;7.75;;;487.10;870.40;;;;;;5081514;28;20107;-74
2021/03/30 11:47:12;;;;;;;12.73;6.97;;;487.30;896.00;;;;;;5083685;28;20588;-73
2021/03/30 11:49:38;;;;;;;15.07;9.02;;;487.30;819.20;;;;;;5081829;28;20028;-74
2021/03/30 11:52:05;;;;;;;14.07;7.18;;;487.20;844.80;;;;;;5082899;28;20028;-76
2021/03/30 11:54:34;;;;;;;11.73;7.47;;;512.00;819.20;;;;;;5083100;28;20017;-75
2021/03/30 11:57:00;;;;;;;13.57;6.95;;;487.30;819.20;;;;;;5082268;28;20047;-77
2021/03/30 11:59:26;;;;;;;13.52;6.90;;;487.30;819.20;;;;;;5082519;28;20019;-74
2021/03/30 12:01:53;;;;;;;14.48;8.43;;;487.30;819.20;;;;;;5083466;28;20387;-75
2021/03/30 12:04:19;;;;;;;13.35;7.07;;;512.10;819.20;;;;;;5081903;28;20025;-78
2021/03/30 12:06:44;;;;;;;15.90;7.63;;;512.20;870.40;;;;;;5081545;28;20032;-80
2021/03/30 12:09:10;;;;;;;16.70;7.88;;;512.40;844.80;;;;;;5081358;28;20070;-79
2021/03/30 12:11:36;;;;;;;10.23;7.47;;;512.40;793.60;;;;;;5081216;28;20485;-78
2021/03/30 12:14:03;;;;;;;13.02;7.90;;;512.20;793.60;;;;;;5081450;28;20073;-79
2021/03/30 12:16:29;;;;;;;15.05;7.35;;;512.30;819.20;;;;;;5081317;28;20394;-79
2021/03/30 12:18:56;;;;;;;13.13;8.05;;;512.40;793.60;;;;;;5079949;28;20131;-79
2021/03/30 12:21:23;;;;;;;9.90;7.43;;;512.40;819.20;;;;;;5081466;28;20382;-79
2021/03/30 12:23:49;;;;;;;13.40;7.97;;;512.60;819.20;;;;;;5080841;28;20020;-79
2021/03/30 12:26:15;;;;;;;13.68;8.68;;;512.30;819.20;;;;;;5080058;28;20029;-80
2021/03/30 12:28:41;;;;;;;11.88;7.50;;;512.60;793.60;;;;;;5081604;28;20051;-79
2021/03/30 12:31:07;;;;;;;10.10;7.60;;;512.60;793.60;;;;;;5081619;28;20421;-81
2021/03/30 12:33:33;;;;;;;13.15;7.57;;;512.50;793.60;;;;;;5081407;28;20024;-79